Terminal Aerodrome Forecast
Issued by NWS Newport/Morehead City, NC

Home | Current Version | Previous Version | Graphics & Text | Print | Product List | Glossary On
Versions: 1 2 3 4 5 6 7 8 9 10 11 12 13 14 15 16 17 18 19 20 21 22 23 24
000
FTUS42 KMHX 171100 AAA
TAFEWN
TAF AMD
KEWN 171141Z 1712/1812 07005KT P6SM BKN020 BKN040 OVC050
     FM171300 07005KT P6SM VCSH OVC050
     FM180400 03005KT P6SM VCSH BKN050 BKN100=

USA.gov is the U.S. government's official web portal to all federal, state and local government web resources and services.